.
WxDataArchive / Data Records for 2015-06-03
2015-06-02 June 2015 2015-06-04

Data Records for Wednesday, 03 June 2015

Time	Temp	Chill	HIndex	Humid	Dewpt	 Wind 	HiWind	WindDir	Rain 	Barom
-----	----	-----	------	-----	-----	------	------	-------	-----	-----
00:00	54.5	54.5	54.5	72	45.7	0	1	90	0.00	30.088 
00:05	54.7	54.7	54.7	72	45.9	0	1	90	0.00	30.088 
00:10	54.7	54.7	54.7	71	45.5	0	3	90	0.00	30.088 
00:15	54.7	54.7	54.7	72	45.9	0	1	90	0.00	30.083 
00:20	54.7	54.7	54.7	72	45.9	0	1	90	0.00	30.083 
00:25	54.5	54.5	54.5	73	46.0	0	0	---	0.00	30.083 
00:30	54.4	54.4	54.4	73	45.9	0	0	---	0.00	30.084 
00:35	54.1	54.1	54.1	73	45.6	0	0	---	0.00	30.084 
00:40	53.8	53.8	53.8	74	45.7	0	0	---	0.00	30.084 
00:45	53.5	53.5	53.5	75	45.8	0	0	---	0.00	30.084 
00:50	53.3	53.3	53.3	75	45.6	0	0	---	0.00	30.084 
00:55	53.1	53.1	53.1	77	46.1	0	0	---	0.00	30.084 
01:00	52.8	52.8	52.8	77	45.8	0	0	---	0.00	30.085 
01:05	52.6	52.6	52.6	77	45.6	0	0	---	0.00	30.085 
01:10	52.3	52.3	52.3	78	45.6	0	0	---	0.00	30.085 
01:15	52.2	52.2	52.2	78	45.5	0	0	---	0.00	30.087 
01:20	52.0	52.0	52.0	78	45.4	0	0	---	0.00	30.087 
01:25	51.9	51.9	51.9	78	45.3	0	0	---	0.00	30.087 
01:30	51.7	51.7	51.7	78	45.1	0	0	---	0.00	30.083 
01:35	51.6	51.6	51.6	78	45.0	0	0	---	0.00	30.083 
01:40	51.6	51.6	51.6	79	45.3	0	1	90	0.00	30.083 
01:45	51.6	51.6	51.6	79	45.3	0	0	---	0.00	30.077 
01:50	51.6	51.6	51.6	79	45.3	0	0	---	0.00	30.077 
01:55	51.4	51.4	51.4	79	45.1	0	0	---	0.00	30.077 
02:00	51.4	51.4	51.4	79	45.1	0	0	---	0.00	30.078 
02:05	51.1	51.1	51.1	79	44.8	0	0	---	0.00	30.078 
02:10	51.0	51.0	51.0	80	45.0	0	0	---	0.00	30.078 
02:15	50.7	50.7	50.7	80	44.8	0	0	---	0.00	30.074 
02:20	50.5	50.5	50.5	81	44.9	0	0	---	0.00	30.074 
02:25	50.4	50.4	50.4	81	44.8	0	0	---	0.00	30.074 
02:30	50.1	50.1	50.1	81	44.5	0	0	---	0.00	30.071 
02:35	49.9	49.9	49.9	81	44.3	0	0	---	0.00	30.071 
02:40	49.6	49.6	49.6	82	44.3	0	0	---	0.00	30.071 
02:45	49.5	49.5	49.5	82	44.2	0	0	---	0.00	30.070 
02:50	49.4	49.4	49.4	83	44.5	0	0	---	0.00	30.070 
02:55	49.2	49.2	49.2	83	44.3	0	0	---	0.00	30.070 
03:00	49.1	49.1	49.1	84	44.5	0	0	---	0.00	30.069 
03:05	48.8	48.8	48.8	84	44.2	0	0	---	0.00	30.069 
03:10	48.6	48.6	48.6	84	44.0	0	0	---	0.00	30.069 
03:15	48.5	48.5	48.5	84	43.9	0	0	---	0.00	30.068 
03:20	48.3	48.3	48.3	85	44.0	0	0	---	0.00	30.068 
03:25	48.2	48.2	48.2	85	43.9	0	0	---	0.00	30.068 
03:30	48.2	48.2	48.2	86	44.2	0	0	---	0.00	30.069 
03:35	48.0	48.0	48.0	86	44.0	0	0	---	0.00	30.069 
03:40	48.0	48.0	48.0	87	44.3	0	0	---	0.00	30.069 
03:45	48.0	48.0	48.0	87	44.3	0	0	---	0.00	30.067 
03:50	47.9	47.9	47.9	87	44.2	0	0	---	0.00	30.067 
03:55	47.9	47.9	47.9	88	44.5	0	0	---	0.00	30.067 
04:00	47.9	47.9	47.9	88	44.5	0	0	---	0.00	30.064 
04:05	47.9	47.9	47.9	88	44.5	0	0	---	0.00	30.064 
04:10	47.9	47.9	47.9	88	44.5	0	0	---	0.00	30.064 
04:15	47.9	47.9	47.9	88	44.5	0	0	---	0.00	30.063 
04:20	47.9	47.9	47.9	88	44.5	0	0	---	0.00	30.063 
04:25	48.0	48.0	48.0	89	44.9	0	0	---	0.00	30.063 
04:30	48.0	48.0	48.0	89	44.9	0	0	---	0.00	30.067 
04:35	48.0	48.0	48.0	89	44.9	0	0	---	0.00	30.067 
04:40	48.2	48.2	48.2	90	45.4	0	0	---	0.00	30.067 
04:45	48.2	48.2	48.2	89	45.1	0	0	---	0.00	30.069 
04:50	48.0	48.0	48.0	90	45.2	0	1	90	0.00	30.069 
04:55	48.0	48.0	48.0	90	45.2	0	0	---	0.00	30.069 
05:00	47.9	47.9	47.9	90	45.1	0	0	---	0.00	30.061 
05:05	47.9	47.9	47.9	90	45.1	0	0	---	0.00	30.061 
05:10	47.9	47.9	47.9	90	45.1	0	0	---	0.00	30.061 
05:15	47.9	47.9	47.9	91	45.4	0	0	---	0.00	30.060 
05:20	48.0	48.0	48.0	91	45.5	0	0	---	0.00	30.060 
05:25	48.0	48.0	48.0	91	45.5	0	0	---	0.00	30.060 
05:30	48.0	48.0	48.0	91	45.5	0	0	---	0.00	30.054 
05:35	48.2	48.2	48.2	91	45.7	0	0	---	0.00	30.054 
05:40	48.2	48.2	48.2	91	45.7	0	1	90	0.00	30.054 
05:45	48.0	48.0	48.0	91	45.5	0	0	---	0.00	30.057 
05:50	48.0	48.0	48.0	91	45.5	0	0	---	0.00	30.057 
05:55	47.9	47.9	47.9	91	45.4	0	0	---	0.00	30.057 
06:00	47.9	47.9	47.9	91	45.4	0	0	---	0.00	30.068 
06:05	47.9	47.9	47.9	91	45.4	0	0	---	0.00	30.068 
06:10	47.9	47.9	47.9	91	45.4	0	0	---	0.00	30.068 
06:15	47.7	47.7	47.7	91	45.2	0	0	---	0.00	30.066 
06:20	48.0	48.0	48.0	92	45.8	0	1	90	0.00	30.066 
06:25	48.2	48.2	48.2	92	46.0	0	0	---	0.00	30.066 
06:30	48.3	48.3	48.3	92	46.1	0	1	90	0.00	30.068 
06:35	48.5	48.5	48.5	92	46.3	0	1	90	0.00	30.068 
06:40	48.6	48.6	48.6	92	46.4	0	1	90	0.00	30.068 
06:45	48.8	48.8	48.8	92	46.6	0	1	90	0.00	30.072 
06:50	48.9	48.9	48.9	92	46.7	0	2	90	0.00	30.072 
06:55	49.1	49.1	49.1	92	46.9	0	1	90	0.00	30.072 
07:00	49.2	49.2	49.2	92	47.0	0	1	90	0.00	30.073 
07:05	49.4	49.4	49.4	92	47.2	0	1	90	0.00	30.073 
07:10	49.6	49.6	49.6	92	47.4	0	1	90	0.00	30.073 
07:15	49.8	49.8	49.8	92	47.6	0	0	---	0.00	30.077 
07:20	50.2	50.2	50.2	92	48.0	0	2	90	0.00	30.077 
07:25	50.5	50.5	50.5	92	48.3	0	1	90	0.00	30.077 
07:30	50.8	50.8	50.8	92	48.6	0	2	90	0.00	30.076 
07:35	51.1	51.1	51.1	92	48.9	0	2	90	0.00	30.076 
07:40	51.4	51.4	51.4	92	49.2	0	2	90	0.00	30.076 
07:45	51.6	51.6	51.6	92	49.4	0	2	90	0.00	30.080 
07:50	51.9	51.9	51.9	92	49.6	0	0	---	0.00	30.080 
07:55	52.0	52.0	52.0	92	49.7	0	1	90	0.00	30.080 
08:00	52.2	52.2	52.2	91	49.7	0	1	90	0.00	30.080 
08:05	52.5	52.5	52.5	91	49.9	0	0	---	0.00	30.080 
08:10	52.8	52.8	52.8	91	50.2	0	0	---	0.00	30.080 
08:15	52.9	52.9	52.9	91	50.3	0	0	---	0.00	30.083 
08:20	53.2	53.2	53.2	91	50.6	0	1	90	0.00	30.083 
08:25	53.5	53.5	53.5	91	50.9	0	1	90	0.00	30.083 
08:30	53.8	53.8	53.8	91	51.2	0	1	90	0.00	30.086 
08:35	53.9	53.9	53.9	91	51.3	0	1	90	0.00	30.086 
08:40	54.1	54.1	54.1	90	51.2	0	1	90	0.00	30.086 
08:45	54.4	54.4	54.4	90	51.5	0	2	90	0.00	30.089 
08:50	54.5	54.5	54.5	89	51.3	0	2	90	0.00	30.089 
08:55	54.7	54.7	54.7	89	51.5	0	2	90	0.00	30.089 
09:00	54.8	54.8	54.8	89	51.6	0	2	90	0.00	30.086 
09:05	55.0	55.0	55.0	89	51.8	0	2	90	0.00	30.086 
09:10	55.1	55.1	55.1	88	51.6	0	2	90	0.00	30.086 
09:15	55.3	55.3	55.3	88	51.8	1	2	90	0.00	30.093 
09:20	55.6	55.6	55.6	88	52.1	0	2	90	0.00	30.093 
09:25	55.9	55.9	55.9	88	52.4	0	0	---	0.00	30.093 
09:30	56.2	56.2	56.2	88	52.7	0	0	---	0.00	30.099 
09:35	56.6	56.6	56.6	87	52.8	0	2	90	0.00	30.099 
09:40	56.7	56.7	56.7	87	52.9	0	1	90	0.00	30.099 
09:45	57.0	57.0	57.0	86	52.9	0	0	---	0.00	30.098 
09:50	57.5	57.5	57.5	86	53.3	0	0	---	0.00	30.098 
09:55	57.6	57.6	57.6	85	53.1	0	0	---	0.00	30.098 
10:00	58.0	58.0	58.0	85	53.5	0	0	---	0.00	30.098 
10:05	58.3	58.3	58.3	85	53.8	0	1	90	0.00	30.098 
10:10	58.6	58.6	58.6	84	53.8	0	0	---	0.00	30.098 
10:15	58.9	58.9	58.9	83	53.7	0	1	90	0.00	30.087 
10:20	59.2	59.2	59.2	83	54.0	0	2	90	0.00	30.087 
10:25	59.5	59.5	59.5	81	53.7	0	2	90	0.00	30.087 
10:30	59.6	59.6	59.6	81	53.8	1	3	90	0.00	30.084 
10:35	59.8	59.8	59.8	81	54.0	0	1	90	0.00	30.084 
10:40	60.2	60.2	60.2	81	54.3	0	1	90	0.00	30.084 
10:45	60.4	60.4	60.4	80	54.2	0	1	90	0.00	30.078 
10:50	60.7	60.7	60.7	80	54.5	0	1	90	0.00	30.078 
10:55	61.0	61.0	61.0	79	54.4	1	3	90	0.00	30.078 
11:00	61.2	61.2	61.2	79	54.6	0	3	90	0.00	30.071 
11:05	61.6	61.6	61.6	78	54.7	0	2	90	0.00	30.071 
11:10	62.1	62.1	62.1	78	55.2	0	3	90	0.00	30.071 
11:15	62.9	62.9	62.9	78	55.9	1	3	90	0.00	30.068 
11:20	63.1	63.1	63.1	76	55.4	0	2	90	0.00	30.068 
11:25	63.7	63.7	63.7	77	56.3	0	3	90	0.00	30.068 
11:30	64.3	64.3	64.3	75	56.2	1	3	90	0.00	30.068 
11:35	64.7	64.7	64.7	75	56.6	1	3	112	0.00	30.068 
11:40	65.0	65.0	65.0	73	56.1	1	5	112	0.00	30.068 
11:45	65.6	65.6	65.6	72	56.3	1	5	158	0.00	30.066 
11:50	65.8	65.8	65.8	71	56.1	2	5	90	0.00	30.066 
11:55	66.1	66.1	66.1	71	56.4	0	2	90	0.00	30.066 
12:00	66.4	66.4	66.4	71	56.7	1	4	90	0.00	30.064 
12:05	66.6	66.6	66.6	70	56.5	1	4	90	0.00	30.064 
12:10	67.3	67.3	67.3	70	57.2	1	3	90	0.00	30.064 
12:15	67.9	67.9	67.9	67	56.5	1	4	158	0.00	30.065 
12:20	68.1	68.1	68.1	67	56.7	1	3	158	0.00	30.065 
12:25	68.3	68.3	68.3	67	56.9	1	3	158	0.00	30.065 
12:30	68.3	68.3	68.3	67	56.9	1	4	90	0.00	30.066 
12:35	67.9	67.9	67.9	69	57.3	1	4	45	0.00	30.066 
12:40	67.8	67.8	67.8	69	57.2	1	4	45	0.00	30.066 
12:45	68.1	68.1	68.1	69	57.5	0	2	90	0.00	30.065 
12:50	68.6	68.6	68.6	69	58.0	1	5	112	0.00	30.065 
12:55	69.1	69.1	69.1	66	57.3	0	2	112	0.00	30.065 
13:00	69.3	69.3	69.3	68	58.3	1	3	202	0.00	30.054 
13:05	69.4	69.4	69.4	65	57.1	1	3	112	0.00	30.054 
13:10	69.8	69.8	69.8	66	57.9	0	3	112	0.00	30.054 
13:15	69.9	69.9	69.9	65	57.6	1	3	112	0.00	30.055 
13:20	69.9	69.9	69.9	65	57.6	1	4	112	0.00	30.055 
13:25	69.8	69.8	69.8	65	57.5	1	3	112	0.00	30.055 
13:30	69.4	69.4	69.4	66	57.5	1	5	112	0.00	30.059 
13:35	69.3	69.3	69.3	66	57.4	1	5	112	0.00	30.059 
13:40	69.1	69.1	69.1	65	56.8	2	6	90	0.00	30.059 
13:45	68.9	68.9	68.9	66	57.1	1	3	90	0.00	30.053 
13:50	69.1	69.1	69.1	66	57.3	1	4	90	0.00	30.053 
13:55	69.3	69.3	69.3	65	57.0	2	7	90	0.00	30.053 
14:00	69.1	69.1	69.1	66	57.3	2	7	90	0.00	30.050 
14:05	69.3	69.3	69.3	67	57.9	1	4	90	0.00	30.050 
14:10	69.6	69.6	69.6	65	57.3	1	2	112	0.00	30.050 
14:15	69.6	69.6	69.6	66	57.7	1	2	112	0.00	30.048 
14:20	69.3	69.3	69.3	66	57.4	1	4	90	0.00	30.048 
14:25	69.1	69.1	69.1	67	57.7	1	4	90	0.00	30.048 
14:30	68.9	68.9	68.9	67	57.5	1	4	112	0.00	30.038 
14:35	69.3	69.3	69.3	67	57.9	0	5	90	0.00	30.038 
14:40	69.6	69.6	69.6	67	58.1	1	5	112	0.00	30.038 
14:45	69.8	69.8	69.8	66	57.9	0	2	68	0.00	30.037 
14:50	70.1	70.1	70.1	66	58.2	1	3	68	0.00	30.037 
14:55	69.9	69.9	69.9	65	57.6	1	4	68	0.00	30.037 
15:00	69.6	69.6	69.6	66	57.7	1	4	112	0.00	30.032 
15:05	69.6	69.6	69.6	66	57.7	1	3	112	0.00	30.032 
15:10	69.9	69.9	69.9	66	58.0	1	3	112	0.00	30.032 
15:15	69.9	69.9	69.9	66	58.0	1	5	112	0.00	30.032 
15:20	69.9	69.9	69.9	65	57.6	1	3	68	0.00	30.032 
15:25	69.6	69.6	69.6	66	57.7	1	4	68	0.00	30.032 
15:30	69.4	69.4	69.4	67	58.0	1	4	68	0.00	30.032 
15:35	69.3	69.3	69.3	67	57.9	0	3	68	0.00	30.032 
15:40	69.4	69.4	69.4	67	58.0	1	3	90	0.00	30.032 
15:45	69.6	69.6	69.6	66	57.7	1	4	112	0.00	30.030 
15:50	69.8	69.8	69.8	65	57.5	1	3	112	0.00	30.030 
15:55	69.9	69.9	69.9	65	57.6	2	5	112	0.00	30.030 
16:00	69.9	69.9	69.9	65	57.6	1	4	68	0.00	30.020 
16:05	70.3	70.3	70.3	66	58.4	1	4	90	0.00	30.020 
16:10	70.4	70.4	70.4	63	57.2	1	4	90	0.00	30.020 
16:15	70.4	70.4	70.4	64	57.6	1	3	90	0.00	30.019 
16:20	70.6	70.6	70.6	65	58.2	1	4	68	0.00	30.019 
16:25	70.8	70.8	70.8	65	58.4	1	3	22	0.00	30.019 
16:30	70.8	70.8	70.8	64	58.0	1	4	90	0.00	30.016 
16:35	71.1	71.1	71.1	63	57.9	0	2	90	0.00	30.016 
16:40	71.5	71.5	71.5	63	58.2	0	2	135	0.00	30.016 
16:45	71.6	71.6	71.6	61	57.4	1	5	90	0.00	30.015 
16:50	71.5	71.5	71.5	61	57.3	1	3	45	0.00	30.015 
16:55	71.1	71.1	71.1	63	57.9	1	4	90	0.00	30.015 
17:00	70.9	70.9	70.9	63	57.7	1	5	68	0.00	30.017 
17:05	70.8	70.8	70.8	62	57.1	1	4	68	0.00	30.017 
17:10	70.8	70.8	70.8	63	57.6	0	2	68	0.00	30.017 
17:15	70.6	70.6	70.6	63	57.4	1	4	68	0.00	30.016 
17:20	70.6	70.6	70.6	62	56.9	0	3	90	0.00	30.016 
17:25	70.8	70.8	70.8	63	57.6	0	2	90	0.00	30.016 
17:30	70.8	70.8	70.8	63	57.6	0	1	90	0.00	30.012 
17:35	70.9	70.9	70.9	63	57.7	0	2	90	0.00	30.012 
17:40	70.9	70.9	70.9	63	57.7	0	1	90	0.00	30.012 
17:45	70.9	70.9	70.9	63	57.7	1	4	90	0.00	30.011 
17:50	71.1	71.1	71.1	64	58.3	0	2	90	0.00	30.011 
17:55	71.1	71.1	71.1	63	57.9	1	4	90	0.00	30.011 
18:00	71.1	71.1	71.1	63	57.9	0	2	90	0.00	30.005 
18:05	71.1	71.1	71.1	62	57.4	0	2	90	0.00	30.005 
18:10	71.3	71.3	71.3	63	58.0	0	3	90	0.00	30.005 
18:15	71.3	71.3	71.3	62	57.6	0	3	90	0.00	30.002 
18:20	71.3	71.3	71.3	62	57.6	0	2	90	0.00	30.002 
18:25	71.1	71.1	71.1	62	57.4	1	2	90	0.00	30.002 
18:30	70.9	70.9	70.9	61	56.8	0	2	90	0.00	30.003 
18:35	70.9	70.9	70.9	63	57.7	0	0	---	0.00	30.003 
18:40	70.9	70.9	70.9	62	57.2	0	0	---	0.00	30.003 
18:45	70.9	70.9	70.9	62	57.2	0	2	90	0.00	30.005 
18:50	70.9	70.9	70.9	62	57.2	0	0	---	0.00	30.005 
18:55	70.9	70.9	70.9	62	57.2	0	0	---	0.00	30.005 
19:00	70.8	70.8	70.8	62	57.1	0	0	---	0.00	30.008 
19:05	70.8	70.8	70.8	62	57.1	0	1	90	0.00	30.008 
19:10	70.6	70.6	70.6	62	56.9	0	0	---	0.00	30.008 
19:15	70.6	70.6	70.6	62	56.9	0	0	---	0.00	30.005 
19:20	70.6	70.6	70.6	63	57.4	0	1	90	0.00	30.005 
19:25	70.6	70.6	70.6	62	56.9	0	0	---	0.00	30.005 
19:30	70.6	70.6	70.6	63	57.4	0	0	---	0.00	30.002 
19:35	70.6	70.6	70.6	64	57.8	0	0	---	0.00	30.002 
19:40	70.4	70.4	70.4	63	57.2	0	0	---	0.00	30.002 
19:45	70.4	70.4	70.4	64	57.6	0	0	---	0.00	30.001 
19:50	70.4	70.4	70.4	64	57.6	0	0	---	0.00	30.001 
19:55	70.3	70.3	70.3	64	57.5	0	0	---	0.00	30.001 
20:00	70.3	70.3	70.3	64	57.5	0	0	---	0.00	29.999 
20:05	70.3	70.3	70.3	64	57.5	0	0	---	0.00	29.999 
20:10	70.3	70.3	70.3	65	58.0	0	0	---	0.00	29.999 
20:15	70.3	70.3	70.3	65	58.0	0	0	---	0.00	29.997 
20:20	70.1	70.1	70.1	65	57.8	0	0	---	0.00	29.997 
20:25	69.9	69.9	69.9	65	57.6	0	0	---	0.00	29.997 
20:30	69.9	69.9	69.9	66	58.0	0	0	---	0.00	29.997 
20:35	69.6	69.6	69.6	66	57.7	0	0	---	0.00	29.997 
20:40	69.4	69.4	69.4	67	58.0	0	0	---	0.00	29.997 
20:45	69.3	69.3	69.3	67	57.9	0	0	---	0.00	29.997 
20:50	69.1	69.1	69.1	68	58.1	0	0	---	0.00	29.997 
20:55	68.9	68.9	68.9	69	58.3	0	0	---	0.00	29.997 
21:00	68.6	68.6	68.6	69	58.0	0	0	---	0.00	29.993 
21:05	68.4	68.4	68.4	69	57.8	0	0	---	0.00	29.993 
21:10	68.1	68.1	68.1	70	57.9	0	0	---	0.00	29.993 
21:15	67.9	67.9	67.9	71	58.1	0	0	---	0.00	29.994 
21:20	67.8	67.8	67.8	72	58.4	0	0	---	0.00	29.994 
21:25	67.4	67.4	67.4	72	58.1	0	0	---	0.00	29.994 
21:30	67.1	67.1	67.1	73	58.1	0	0	---	0.00	29.990 
21:35	66.8	66.8	66.8	74	58.2	0	0	---	0.00	29.990 
21:40	66.4	66.4	66.4	74	57.9	0	0	---	0.00	29.990 
21:45	66.0	66.0	66.0	75	57.8	0	0	---	0.00	29.992 
21:50	65.5	65.5	65.5	76	57.7	0	0	---	0.00	29.992 
21:55	65.2	65.2	65.2	77	57.8	0	0	---	0.00	29.992 
22:00	64.8	64.8	64.8	78	57.8	0	0	---	0.00	30.000 
22:05	64.5	64.5	64.5	79	57.8	0	0	---	0.00	30.000 
22:10	64.0	64.0	64.0	81	58.0	0	0	---	0.00	30.000 
22:15	63.7	63.7	63.7	81	57.8	0	0	---	0.00	29.998 
22:20	63.4	63.4	63.4	81	57.5	0	0	---	0.00	29.998 
22:25	63.2	63.2	63.2	82	57.6	0	0	---	0.00	29.998 
22:30	62.9	62.9	62.9	82	57.3	0	0	---	0.00	29.999 
22:35	62.7	62.7	62.7	83	57.5	0	0	---	0.00	29.999 
22:40	62.4	62.4	62.4	84	57.5	0	0	---	0.00	29.999 
22:45	62.3	62.3	62.3	84	57.4	0	0	---	0.00	30.007 
22:50	62.0	62.0	62.0	85	57.4	0	0	---	0.00	30.007 
22:55	61.8	61.8	61.8	86	57.6	0	0	---	0.00	30.007 
23:00	61.8	61.8	61.8	86	57.6	0	0	---	0.00	30.011 
23:05	61.6	61.6	61.6	86	57.4	0	0	---	0.00	30.011 
23:10	61.6	61.6	61.6	87	57.7	0	0	---	0.00	30.011 
23:15	61.6	61.6	61.6	87	57.7	0	0	---	0.00	30.003 
23:20	61.6	61.6	61.6	87	57.7	0	0	---	0.00	30.003 
23:25	61.6	61.6	61.6	88	58.0	0	0	---	0.00	30.003 
23:30	61.6	61.6	61.6	88	58.0	0	0	---	0.00	29.996 
23:35	61.5	61.5	61.5	88	57.9	0	0	---	0.00	29.996 
23:40	61.3	61.3	61.3	88	57.7	0	0	---	0.00	29.996 
23:45	61.2	61.2	61.2	88	57.6	0	0	---	0.00	29.999 
23:50	61.2	61.2	61.2	88	57.6	0	0	---	0.00	29.999 
23:55	61.0	61.0	61.0	88	57.4	0	0	---	0.00	29.999 

CoCoRaHS
IN-AL-39
A2 Web Hosting
Creative Commons License
GoDaddy
search engine by freefind advanced

loaded 2018-11-15 13:32:59 • last modified 2010-11-18 10:43:29
Privacy PolicyDisclaimer
• wx.awcolley.com is powered by PmWiki v.2002016 •
• all content (unless otherwise noted) © 2018 A W Colley